• Join FlightAware (Why Join?)
  • Login
  • US Flag 
09:04PM EDT


 

Airport Tracker/Info


-or-


 

Live Flight TrackerFlight Track Log ✈ UAL3779 ✈ 06-Apr-2013 ✈ KAUS - KIAD

Flight Track Log - Related Links

Times and Time Zones

All times are in EDT time to prevent confusion due to time zone crossing. See the UAL3779 flight status page for this flight to view local times or setup timezone preferences in your user account.

Time Position Orientation Groundspeed Altitude Reporting Facility
EDT Latitude Longitude Course Direction KTS MPH feet Rate Location/Type
01:00PM 30.0469 -97.6003 90° East 268 308 6,200  Level Houston Center
01:01PM 30.0861 -97.5119 63° Northeast 295 339 9,200 2,100 Climbing Houston Center
01:02PM 30.1350 -97.4347 54° Northeast 296 341 10,600 1,620 Climbing Houston Center
01:03PM 30.3500 -97.1052 90° East  Level FlightAware Approximate
01:03PM 30.1914 -97.3431 55° Northeast 339 390 12,600  Level Houston Center
01:04PM 30.3379 -96.9698 98° East  Level FlightAware Approximate
01:04PM 30.2500 -97.2486 54° Northeast 356 410 14,000  Level Houston Center
01:05PM 30.3333 -96.8338 90° East  Level FlightAware Approximate
01:05PM 30.3128 -97.1439 55° Northeast 385 443 15,600  Level Houston Center
01:06PM 30.3481 -97.0208 72° East 415 478 17,000 1,680 Climbing Houston Center
01:07PM 30.3517 -96.8611 88° East 438 504 19,100 1,800 Climbing Houston Center
01:08PM 30.3992 -96.7403 65° Northeast 417 480 20,700 1,500 Climbing Houston Center
01:09PM 30.4472 -96.6139 66° East 421 484 22,200 1,320 Climbing Houston Center
01:10PM 30.4975 -96.4844 66° East 434 499 23,500 1,080 Climbing Houston Center
01:11PM 30.5492 -96.3525 66° East 444 511 24,500 1,080 Climbing Houston Center
01:12PM 30.6011 -96.2164 66° East 455 524 25,800 1,140 Climbing Houston Center
01:13PM 30.6539 -96.0794 66° East 461 531 26,900 960 Climbing Houston Center
01:14PM 30.7136 -95.9206 66° East 460 529 27,800 1,020 Climbing Houston Center
01:15PM 30.7683 -95.7806 66° East 476 548 29,100 1,020 Climbing Houston Center
01:16PM 30.8197 -95.6392 67° East 474 545 30,000 1,020 Climbing Houston Center
01:17PM 30.8739 -95.5000 66° East 475 547 31,300 1,020 Climbing Houston Center
01:18PM 30.9250 -95.3611 67° East 464 534 32,200 780 Climbing Houston Center
01:19PM 30.9775 -95.2211 66° East 470 541 33,000 840 Climbing Houston Center
01:20PM 31.0397 -95.0519 67° East 475 547 34,000 900 Climbing Houston Center
01:21PM 31.0908 -94.9111 67° East 474 545 34,900 480 Climbing Houston Center
01:22PM 31.1428 -94.7717 66° East 478 550 35,000  Climbing Houston Center
01:23PM 31.2047 -94.6811 51° Northeast 472 543 35,000  Level Fort Worth Center
01:24PM 31.3131 -94.5783 39° Northeast 480 552 35,000  Level Fort Worth Center
01:25PM 31.4275 -94.4725 38° Northeast 492 566 35,000  Level Fort Worth Center
01:26PM 31.5400 -94.3714 37° Northeast 506 582 35,000  Level Fort Worth Center
01:27PM 31.6522 -94.2678 38° Northeast 512 589 35,000  Level Fort Worth Center
01:28PM 31.7644 -94.1611 39° Northeast 512 589 35,000  Level Fort Worth Center
01:29PM 31.8572 -94.0381 48° Northeast 507 583 35,000  Level Fort Worth Center
01:30PM 31.9494 -93.8975 52° Northeast 502 578 35,000  Level Fort Worth Center
01:31PM 32.0353 -93.7619 53° Northeast 515 593 35,000  Level Fort Worth Center
01:32PM 32.1250 -93.6258 52° Northeast 521 600 35,000  Level Fort Worth Center
01:33PM 32.2025 -93.4950 55° Northeast 526 605 35,000  Level Fort Worth Center
01:34PM 32.2900 -93.3536 54° Northeast 532 612 35,000  Level Fort Worth Center
01:35PM 32.3772 -93.2169 53° Northeast 532 612 35,000  Level Fort Worth Center
01:36PM 32.4644 -93.0800 53° Northeast 532 612 35,000  Level Fort Worth Center
01:37PM 32.5533 -92.9378 53° Northeast 532 612 35,000  Level Fort Worth Center
01:38PM 32.6425 -92.8003 52° Northeast 527 606 35,000  Level Fort Worth Center
01:39PM 32.7289 -92.6550 55° Northeast 527 606 35,000 300 Level Fort Worth Center
01:40PM 32.8153 -92.5169 53° Northeast 527 606 35,700 660 Climbing Fort Worth Center
01:41PM 32.9017 -92.3786 53° Northeast 527 606 36,400 420 Climbing Fort Worth Center
01:43PM 33.0839 -92.0831 54° Northeast 498 573 37,000 180 Climbing Memphis Center
01:44PM 33.1564 -91.9603 55° Northeast 506 582 37,000  Level Memphis Center
01:45PM 33.2375 -91.8228 55° Northeast 506 582 37,000  Level Memphis Center
01:46PM 33.3203 -91.6847 54° Northeast 527 606 37,000  Level Memphis Center
01:47PM 33.4033 -91.5467 54° Northeast 513 590 37,000  Level Memphis Center
01:48PM 33.4858 -91.4083 54° Northeast 513 590 37,000  Level Memphis Center
01:49PM 33.5683 -91.2722 54° Northeast 513 590 37,000  Level Memphis Center
01:50PM 33.6633 -91.1158 54° Northeast 519 597 37,000  Level Memphis Center
01:51PM 33.7433 -90.9792 55° Northeast 519 597 37,000  Level Memphis Center
01:52PM 33.8275 -90.8422 53° Northeast 513 590 37,000  Level Memphis Center
01:53PM 33.9092 -90.7000 55° Northeast 513 590 37,000  Level Memphis Center
01:54PM 33.9911 -90.5600 55° Northeast 513 590 37,000  Level Memphis Center
01:55PM 34.0747 -90.4197 54° Northeast 513 590 37,000  Level Memphis Center
01:56PM 34.1561 -90.2769 55° Northeast 508 585 37,000  Level Memphis Center
01:57PM 34.2350 -90.1361 56° Northeast 513 590 37,000  Level Memphis Center
01:58PM 34.3100 -90.0103 54° Northeast 513 590 37,000  Level Memphis Center
01:59PM 34.3908 -89.8664 56° Northeast 513 590 37,000  Level Memphis Center
02:00PM 34.4736 -89.7197 56° Northeast 513 590 37,000  Level Memphis Center
02:01PM 34.5542 -89.5753 56° Northeast 518 596 37,000  Level Memphis Center
02:02PM 34.6367 -89.4308 55° Northeast 518 596 37,000  Level Memphis Center
02:03PM 34.7169 -89.2908 55° Northeast 513 590 37,000  Level Memphis Center
02:04PM 34.7992 -89.1483 55° Northeast 513 590 37,000  Level Memphis Center
02:05PM 34.8811 -89.0028 56° Northeast 513 590 37,000  Level Memphis Center
02:06PM 34.9606 -88.8594 56° Northeast 508 585 37,000  Level Memphis Center
02:07PM 35.0422 -88.7136 56° Northeast 514 592 37,000  Level Memphis Center
02:08PM 35.1197 -88.5725 56° Northeast 508 585 37,000  Level Memphis Center
02:09PM 35.2092 -88.4206 54° Northeast 508 585 37,000  Level Memphis Center
02:10PM 35.2881 -88.2736 57° Northeast 508 585 37,000  Level Memphis Center
02:11PM 35.3689 -88.1292 56° Northeast 508 585 37,000  Level Memphis Center
02:12PM 35.4333 -87.9947 60° Northeast 508 585 37,000  Level Memphis Center
02:13PM 35.5119 -87.8522 56° Northeast 502 578 37,000  Level Memphis Center
02:14PM 35.5900 -87.7044 57° Northeast 505 581 37,000  Level Memphis Center
02:15PM 35.6764 -87.5458 56° Northeast 505 581 37,000  Level Memphis Center
02:16PM 35.7542 -87.4025 56° Northeast 510 587 37,000  Level Memphis Center
02:17PM 35.8319 -87.2589 56° Northeast 510 587 37,000  Level Memphis Center
02:18PM 35.9075 -87.1125 57° Northeast 510 587 37,000  Level Memphis Center
02:19PM 35.9831 -86.9683 57° Northeast 505 581 37,000  Level Memphis Center
02:20PM 36.0622 -86.8214 56° Northeast 505 581 37,000  Level Memphis Center
02:21PM 36.1394 -86.6767 57° Northeast 510 587 37,000  Level Memphis Center
02:22PM 36.2119 -86.5242 59° Northeast 516 594 37,000  Level Memphis Center
02:23PM 36.2844 -86.3767 59° Northeast 510 587 37,000  Level Memphis Center
02:24PM 36.3567 -86.2261 59° Northeast 510 587 37,000  Level Memphis Center
02:25PM 36.4286 -86.0756 59° Northeast 505 581 37,000  Level Memphis Center
02:27PM 36.5828 -85.7536 59° Northeast 501 577 37,000  Level Indianapolis Center
02:28PM 36.6542 -85.6025 59° Northeast 503 579 37,000  Level Indianapolis Center
02:29PM 36.7250 -85.4506 60° Northeast 502 578 37,000  Level Indianapolis Center
02:30PM 36.7956 -85.2994 60° Northeast 503 579 37,000  Level Indianapolis Center
02:31PM 36.8661 -85.1464 60° Northeast 505 581 37,000  Level Indianapolis Center
02:32PM 36.9356 -84.9956 60° Northeast 499 574 37,000  Level Indianapolis Center
02:33PM 37.0064 -84.8403 60° Northeast 507 583 37,000  Level Indianapolis Center
02:34PM 37.0850 -84.6739 59° Northeast 512 589 37,000  Level Indianapolis Center
02:35PM 37.1536 -84.5197 61° Northeast 507 583 37,000  Level Indianapolis Center
02:36PM 37.2222 -84.3658 61° Northeast 507 583 37,000  Level Indianapolis Center
02:38PM 37.3036 -84.1864 60° Northeast 505 581 37,000  Level Indianapolis Center
02:39PM 37.3719 -84.0347 60° Northeast 499 574 37,000  Level Indianapolis Center
02:40PM 37.4414 -83.8786 61° Northeast 505 581 37,000  Level Indianapolis Center
02:41PM 37.5103 -83.7247 61° Northeast 504 580 37,000  Level Indianapolis Center
02:42PM 37.5792 -83.5669 61° Northeast 507 583 37,000  Level Indianapolis Center
02:43PM 37.6478 -83.4136 60° Northeast 500 575 37,000 -780 Level Indianapolis Center
02:44PM 37.7164 -83.2558 61° Northeast 507 583 35,500 -1,020 Descending Indianapolis Center
02:45PM 37.7961 -83.0703 61° Northeast 511 588 35,000 -300 Descending Indianapolis Center
02:46PM 37.8617 -82.9181 61° Northeast 494 568 35,000  Level Indianapolis Center
02:47PM 37.9106 -82.7489 70° East 509 586 35,000  Level Indianapolis Center
02:48PM 37.9475 -82.5747 75° East 512 589 35,000  Level Indianapolis Center
02:49PM 37.9842 -82.4011 75° East 509 586 35,000  Level Indianapolis Center
02:50PM 38.0211 -82.2289 75° East 506 582 35,000  Level Indianapolis Center
02:51PM 38.0617 -82.0383 75° East 506 582 35,000  Level Indianapolis Center
02:52PM 38.0956 -81.8675 76° East 505 581 35,000  Level Indianapolis Center
02:53PM 38.1314 -81.6967 75° East 503 579 35,000  Level Indianapolis Center
02:54PM 38.1656 -81.5244 76° East 506 582 35,000 -780 Level Indianapolis Center
02:55PM 38.1992 -81.3522 76° East 508 585 33,500 -1,020 Descending Indianapolis Center
02:56PM 38.2336 -81.1825 75° East 502 578 33,000 -300 Descending Indianapolis Center
02:57PM 38.2725 -80.9747 77° East 504 580 33,000  Level Indianapolis Center
02:58PM 38.3028 -80.8014 77° East 505 581 33,000  Level Indianapolis Center
02:59PM 38.3319 -80.6258 78° East 508 585 33,000  Level Indianapolis Center
03:00PM 38.3628 -80.4397 78° East 498 573 33,000  Level Indianapolis Center
03:01PM 38.3958 -80.2439 78° East 505 581 33,000 -960 Level Washington Center
03:02PM 38.4233 -80.0681 79° East 505 581 31,000 -2,280 Descending Washington Center
03:03PM 38.4525 -79.8975 78° East 505 581 28,500 -2,460 Descending Washington Center
03:04PM 38.4814 -79.7319 77° East 494 568 26,100 -2,220 Descending Washington Center
03:05PM 38.5028 -79.5900 79° East 470 541 24,100 -1,080 Descending Washington Center
03:06PM 38.5333 -79.4242 77° East 463 533 24,000 -660 Descending Washington Center
03:07PM 38.5636 -79.2586 77° East 470 541 22,800 -1,860 Descending Washington Center
03:08PM 38.5892 -79.1006 78° East 465 535 20,300 -2,400 Descending Washington Center
03:09PM 38.6164 -78.9531 77° East 447 514 18,100 -1,320 Descending Washington Center
03:10PM 38.6450 -78.8133 75° East 419 482 17,700 -1,440 Descending Washington Center
03:11PM 38.6717 -78.6708 76° East 411 473 15,200 -2,400 Descending Washington Center
03:12PM 38.7003 -78.5311 75° East 411 473 13,000 -2,160 Descending Washington Center
03:13PM 38.7242 -78.4069 76° East 389 448 11,000 -1,020 Descending Washington Center
03:14PM 38.7578 -78.3069 67° East 344 396 11,000 -240 Level Washington Center
03:15PM 38.7931 -78.2125 64° Northeast 306 352 10,600 -960 Descending Washington Center
03:16PM 38.8283 -78.1231 63° Northeast 285 328 9,200 -1,380 Descending Washington Center
03:17PM 38.8614 -78.0364 64° Northeast 277 319 7,900 -1,320 Descending Washington Center
03:18PM 38.8967 -77.9442 64° Northeast 277 319 6,600 -960 Descending Washington Center
03:19PM 38.9317 -77.8544 63° Northeast 277 319 6,000 -300 Descending Washington Center
03:20PM 38.9647 -77.7567 66° East 277 319 6,000  Level Washington Center
03:21PM 38.9558 -77.6711 98° East 265 305 6,000  Level Washington Center
03:22PM 38.9000 -77.6000 135° Southeast 258 297 6,000 -420 Level Potomac TRACON
03:23PM 38.8333 -77.5667 159° South 245 282 5,200 -540 Descending Potomac TRACON
03:24PM 38.7667 -77.5833 191° South 247 284 5,000 -600 Descending Potomac TRACON
03:25PM 38.7500 -77.5000 104° East 241 277 4,000 -840 Descending Potomac TRACON
03:26PM 38.7833 -77.4667 38° Northeast 190 219 3,400 -900 Descending Potomac TRACON
03:28PM 38.8333 -77.4667 360° North 183 211 2,300 -960 Descending Potomac TRACON
03:29PM 38.8833 -77.4667 360° North 147 169 1,500 -840 Descending Potomac TRACON
03:30PM 38.9167 -77.4667 360° North 147 169 700 -840 Descending Potomac TRACON
03:31PM 38.9474 -77.4599 North  Level Estimated
03:38PM 38.9474 -77.4599 159° South  Level Estimated
03:39PM 38.9474 -77.4599 159° South  Level Estimated